sensor_id;sensor_type;location;lat;lon;timestamp;P1;durP1;ratioP1;P2;durP2;ratioP2
5612;SDS011;63463;53.586;9.928;2023-04-24T00:01:23;12.77;;;7.97;;
5612;SDS011;63463;53.586;9.928;2023-04-24T00:03:49;10.73;;;7.57;;
5612;SDS011;63463;53.586;9.928;2023-04-24T00:06:15;12.80;;;8.83;;
5612;SDS011;63463;53.586;9.928;2023-04-24T00:08:42;9.37;;;8.20;;
5612;SDS011;63463;53.586;9.928;2023-04-24T00:11:08;19.33;;;8.70;;
5612;SDS011;63463;53.586;9.928;2023-04-24T00:13:34;10.10;;;8.27;;
5612;SDS011;63463;53.586;9.928;2023-04-24T00:16:01;10.63;;;8.23;;
5612;SDS011;63463;53.586;9.928;2023-04-24T00:18:27;13.07;;;8.30;;
5612;SDS011;63463;53.586;9.928;2023-04-24T00:20:53;10.00;;;8.17;;
5612;SDS011;63463;53.586;9.928;2023-04-24T00:23:20;11.73;;;8.17;;
5612;SDS011;63463;53.586;9.928;2023-04-24T00:25:49;10.17;;;8.30;;
5612;SDS011;63463;53.586;9.928;2023-04-24T00:28:15;9.23;;;8.20;;
5612;SDS011;63463;53.586;9.928;2023-04-24T00:30:41;9.03;;;8.00;;
5612;SDS011;63463;53.586;9.928;2023-04-24T00:33:09;11.50;;;8.80;;
5612;SDS011;63463;53.586;9.928;2023-04-24T00:35:35;10.80;;;8.90;;
5612;SDS011;63463;53.586;9.928;2023-04-24T00:38:01;9.03;;;8.13;;
5612;SDS011;63463;53.586;9.928;2023-04-24T00:40:28;8.80;;;7.57;;
5612;SDS011;63463;53.586;9.928;2023-04-24T00:42:54;14.93;;;8.87;;
5612;SDS011;63463;53.586;9.928;2023-04-24T00:45:20;12.83;;;8.50;;
5612;SDS011;63463;53.586;9.928;2023-04-24T00:47:46;12.70;;;8.60;;
5612;SDS011;63463;53.586;9.928;2023-04-24T00:50:14;9.57;;;8.33;;
5612;SDS011;63463;53.586;9.928;2023-04-24T00:52:40;12.20;;;8.20;;
5612;SDS011;63463;53.586;9.928;2023-04-24T00:55:09;12.43;;;7.97;;
5612;SDS011;63463;53.586;9.928;2023-04-24T00:57:35;9.37;;;7.80;;
5612;SDS011;63463;53.586;9.928;2023-04-24T01:00:01;9.23;;;8.23;;
5612;SDS011;63463;53.586;9.928;2023-04-24T01:02:30;12.00;;;7.37;;
5612;SDS011;63463;53.586;9.928;2023-04-24T01:04:59;10.57;;;7.97;;
5612;SDS011;63463;53.586;9.928;2023-04-24T01:07:26;10.20;;;8.00;;
5612;SDS011;63463;53.586;9.928;2023-04-24T01:09:52;12.13;;;8.10;;
5612;SDS011;63463;53.586;9.928;2023-04-24T01:12:19;12.53;;;7.90;;
5612;SDS011;63463;53.586;9.928;2023-04-24T01:14:46;8.30;;;7.13;;
5612;SDS011;63463;53.586;9.928;2023-04-24T01:17:12;8.00;;;7.23;;
5612;SDS011;63463;53.586;9.928;2023-04-24T01:19:39;9.90;;;8.10;;
5612;SDS011;63463;53.586;9.928;2023-04-24T01:22:10;7.77;;;7.07;;
5612;SDS011;63463;53.586;9.928;2023-04-24T01:24:36;7.67;;;6.97;;
5612;SDS011;63463;53.586;9.928;2023-04-24T01:27:02;9.30;;;7.53;;
5612;SDS011;63463;53.586;9.928;2023-04-24T01:29:29;13.30;;;7.63;;
5612;SDS011;63463;53.586;9.928;2023-04-24T01:31:55;8.40;;;7.50;;
5612;SDS011;63463;53.586;9.928;2023-04-24T01:34:23;7.83;;;7.03;;
5612;SDS011;63463;53.586;9.928;2023-04-24T01:36:50;14.20;;;6.50;;
5612;SDS011;63463;53.586;9.928;2023-04-24T01:39:16;6.97;;;5.40;;
5612;SDS011;63463;53.586;9.928;2023-04-24T01:41:42;6.53;;;5.90;;
5612;SDS011;63463;53.586;9.928;2023-04-24T01:44:08;9.03;;;6.40;;
5612;SDS011;63463;53.586;9.928;2023-04-24T01:46:34;6.23;;;5.63;;
5612;SDS011;63463;53.586;9.928;2023-04-24T01:49:00;5.90;;;5.30;;
5612;SDS011;63463;53.586;9.928;2023-04-24T01:51:27;5.70;;;5.30;;
5612;SDS011;63463;53.586;9.928;2023-04-24T01:53:53;6.33;;;5.83;;
5612;SDS011;63463;53.586;9.928;2023-04-24T01:56:22;6.07;;;5.53;;
5612;SDS011;63463;53.586;9.928;2023-04-24T01:58:49;6.13;;;5.53;;
5612;SDS011;63463;53.586;9.928;2023-04-24T02:01:19;5.83;;;5.27;;
5612;SDS011;63463;53.586;9.928;2023-04-24T02:03:46;4.93;;;4.53;;
5612;SDS011;63463;53.586;9.928;2023-04-24T02:06:12;5.47;;;4.90;;
5612;SDS011;63463;53.586;9.928;2023-04-24T02:08:38;4.63;;;4.33;;
5612;SDS011;63463;53.586;9.928;2023-04-24T02:11:04;4.60;;;4.20;;
5612;SDS011;63463;53.586;9.928;2023-04-24T02:13:30;4.37;;;4.17;;
5612;SDS011;63463;53.586;9.928;2023-04-24T02:16:00;4.40;;;4.00;;
5612;SDS011;63463;53.586;9.928;2023-04-24T02:18:27;4.70;;;4.40;;
5612;SDS011;63463;53.586;9.928;2023-04-24T02:20:53;4.20;;;3.90;;
5612;SDS011;63463;53.586;9.928;2023-04-24T02:23:20;4.37;;;4.07;;
5612;SDS011;63463;53.586;9.928;2023-04-24T02:25:46;4.20;;;4.00;;
5612;SDS011;63463;53.586;9.928;2023-04-24T02:28:12;3.93;;;3.73;;
5612;SDS011;63463;53.586;9.928;2023-04-24T02:30:38;4.20;;;3.80;;
5612;SDS011;63463;53.586;9.928;2023-04-24T02:33:04;4.40;;;4.10;;
5612;SDS011;63463;53.586;9.928;2023-04-24T02:35:31;4.20;;;3.80;;
5612;SDS011;63463;53.586;9.928;2023-04-24T02:37:57;4.10;;;3.80;;
5612;SDS011;63463;53.586;9.928;2023-04-24T02:40:28;8.10;;;3.50;;
5612;SDS011;63463;53.586;9.928;2023-04-24T02:42:54;4.10;;;3.80;;
5612;SDS011;63463;53.586;9.928;2023-04-24T02:45:21;4.90;;;4.50;;
5612;SDS011;63463;53.586;9.928;2023-04-24T02:47:47;4.90;;;4.30;;
5612;SDS011;63463;53.586;9.928;2023-04-24T02:50:14;4.53;;;4.23;;
5612;SDS011;63463;53.586;9.928;2023-04-24T02:52:40;5.40;;;4.20;;
5612;SDS011;63463;53.586;9.928;2023-04-24T02:55:07;4.50;;;4.20;;
5612;SDS011;63463;53.586;9.928;2023-04-24T02:57:33;7.13;;;4.70;;
5612;SDS011;63463;53.586;9.928;2023-04-24T02:59:59;4.60;;;4.30;;
5612;SDS011;63463;53.586;9.928;2023-04-24T03:02:26;4.40;;;4.20;;
5612;SDS011;63463;53.586;9.928;2023-04-24T03:04:52;5.00;;;4.50;;
5612;SDS011;63463;53.586;9.928;2023-04-24T03:07:18;4.70;;;4.30;;
5612;SDS011;63463;53.586;9.928;2023-04-24T03:09:45;4.80;;;4.50;;
5612;SDS011;63463;53.586;9.928;2023-04-24T03:12:12;7.53;;;4.50;;
5612;SDS011;63463;53.586;9.928;2023-04-24T03:14:38;4.97;;;4.53;;
5612;SDS011;63463;53.586;9.928;2023-04-24T03:17:04;4.90;;;4.40;;
5612;SDS011;63463;53.586;9.928;2023-04-24T03:19:30;4.30;;;4.00;;
5612;SDS011;63463;53.586;9.928;2023-04-24T03:21:56;6.93;;;5.73;;
5612;SDS011;63463;53.586;9.928;2023-04-24T03:24:22;5.43;;;4.93;;
5612;SDS011;63463;53.586;9.928;2023-04-24T03:26:48;5.10;;;4.57;;
5612;SDS011;63463;53.586;9.928;2023-04-24T03:29:14;4.70;;;4.40;;
5612;SDS011;63463;53.586;9.928;2023-04-24T03:31:41;6.93;;;4.77;;
5612;SDS011;63463;53.586;9.928;2023-04-24T03:34:07;4.60;;;4.20;;
5612;SDS011;63463;53.586;9.928;2023-04-24T03:36:33;5.10;;;4.70;;
5612;SDS011;63463;53.586;9.928;2023-04-24T03:38:59;4.37;;;4.10;;
5612;SDS011;63463;53.586;9.928;2023-04-24T03:41:25;4.87;;;4.43;;
5612;SDS011;63463;53.586;9.928;2023-04-24T03:43:52;5.00;;;4.63;;
5612;SDS011;63463;53.586;9.928;2023-04-24T03:46:18;3.90;;;3.70;;
5612;SDS011;63463;53.586;9.928;2023-04-24T03:48:44;4.20;;;3.90;;
5612;SDS011;63463;53.586;9.928;2023-04-24T03:51:10;6.80;;;4.67;;
5612;SDS011;63463;53.586;9.928;2023-04-24T03:53:36;4.47;;;4.17;;
5612;SDS011;63463;53.586;9.928;2023-04-24T03:56:02;4.33;;;4.10;;
5612;SDS011;63463;53.586;9.928;2023-04-24T03:58:29;3.70;;;3.60;;
5612;SDS011;63463;53.586;9.928;2023-04-24T04:00:55;4.00;;;3.80;;
5612;SDS011;63463;53.586;9.928;2023-04-24T04:03:23;4.07;;;3.87;;
5612;SDS011;63463;53.586;9.928;2023-04-24T04:05:50;6.53;;;4.20;;
5612;SDS011;63463;53.586;9.928;2023-04-24T04:08:16;4.10;;;3.90;;
5612;SDS011;63463;53.586;9.928;2023-04-24T04:10:42;4.30;;;4.10;;
5612;SDS011;63463;53.586;9.928;2023-04-24T04:13:08;4.07;;;3.83;;
5612;SDS011;63463;53.586;9.928;2023-04-24T04:15:34;4.23;;;4.03;;
5612;SDS011;63463;53.586;9.928;2023-04-24T04:18:01;4.73;;;4.03;;
5612;SDS011;63463;53.586;9.928;2023-04-24T04:20:28;4.00;;;3.90;;
5612;SDS011;63463;53.586;9.928;2023-04-24T04:22:54;4.37;;;4.10;;
5612;SDS011;63463;53.586;9.928;2023-04-24T04:25:23;4.30;;;4.00;;
5612;SDS011;63463;53.586;9.928;2023-04-24T04:27:49;3.97;;;3.70;;
5612;SDS011;63463;53.586;9.928;2023-04-24T04:30:16;5.23;;;3.87;;
5612;SDS011;63463;53.586;9.928;2023-04-24T04:32:43;4.03;;;3.83;;
5612;SDS011;63463;53.586;9.928;2023-04-24T04:35:09;4.23;;;4.00;;
5612;SDS011;63463;53.586;9.928;2023-04-24T04:37:37;3.93;;;3.73;;
5612;SDS011;63463;53.586;9.928;2023-04-24T04:40:03;4.17;;;3.77;;
5612;SDS011;63463;53.586;9.928;2023-04-24T04:42:36;3.50;;;3.40;;
5612;SDS011;63463;53.586;9.928;2023-04-24T04:45:05;4.00;;;3.80;;
5612;SDS011;63463;53.586;9.928;2023-04-24T04:47:33;3.90;;;3.73;;
5612;SDS011;63463;53.586;9.928;2023-04-24T04:50:00;14.73;;;4.20;;
5612;SDS011;63463;53.586;9.928;2023-04-24T04:52:28;3.80;;;3.70;;
5612;SDS011;63463;53.586;9.928;2023-04-24T04:54:56;4.30;;;3.93;;
5612;SDS011;63463;53.586;9.928;2023-04-24T04:57:25;5.83;;;4.60;;
5612;SDS011;63463;53.586;9.928;2023-04-24T04:59:51;4.20;;;4.00;;
5612;SDS011;63463;53.586;9.928;2023-04-24T05:02:18;4.83;;;3.63;;
5612;SDS011;63463;53.586;9.928;2023-04-24T05:04:44;3.80;;;3.60;;
5612;SDS011;63463;53.586;9.928;2023-04-24T05:07:11;4.30;;;3.90;;
5612;SDS011;63463;53.586;9.928;2023-04-24T05:09:37;4.00;;;3.80;;
5612;SDS011;63463;53.586;9.928;2023-04-24T05:12:04;4.00;;;3.73;;
5612;SDS011;63463;53.586;9.928;2023-04-24T05:14:30;3.80;;;3.60;;
5612;SDS011;63463;53.586;9.928;2023-04-24T05:16:59;4.53;;;4.20;;
5612;SDS011;63463;53.586;9.928;2023-04-24T05:19:25;6.00;;;3.60;;
5612;SDS011;63463;53.586;9.928;2023-04-24T05:21:52;3.70;;;3.50;;
5612;SDS011;63463;53.586;9.928;2023-04-24T05:24:18;3.83;;;3.63;;
5612;SDS011;63463;53.586;9.928;2023-04-24T05:26:44;4.30;;;3.73;;
5612;SDS011;63463;53.586;9.928;2023-04-24T05:29:11;4.43;;;4.07;;
5612;SDS011;63463;53.586;9.928;2023-04-24T05:31:38;3.83;;;3.53;;
5612;SDS011;63463;53.586;9.928;2023-04-24T05:34:04;4.33;;;3.90;;
5612;SDS011;63463;53.586;9.928;2023-04-24T05:36:30;4.20;;;3.90;;
5612;SDS011;63463;53.586;9.928;2023-04-24T05:38:56;6.50;;;4.00;;
5612;SDS011;63463;53.586;9.928;2023-04-24T05:41:23;6.93;;;4.53;;
5612;SDS011;63463;53.586;9.928;2023-04-24T05:43:50;4.47;;;4.10;;
5612;SDS011;63463;53.586;9.928;2023-04-24T05:46:16;8.40;;;3.97;;
5612;SDS011;63463;53.586;9.928;2023-04-24T05:48:42;4.17;;;3.77;;
5612;SDS011;63463;53.586;9.928;2023-04-24T05:51:09;3.70;;;3.50;;
5612;SDS011;63463;53.586;9.928;2023-04-24T05:53:38;7.60;;;3.67;;
5612;SDS011;63463;53.586;9.928;2023-04-24T05:56:04;3.97;;;3.57;;
5612;SDS011;63463;53.586;9.928;2023-04-24T05:58:30;3.40;;;3.20;;
5612;SDS011;63463;53.586;9.928;2023-04-24T06:00:56;3.80;;;3.60;;
5612;SDS011;63463;53.586;9.928;2023-04-24T06:03:23;3.30;;;3.20;;
5612;SDS011;63463;53.586;9.928;2023-04-24T06:05:50;3.77;;;3.47;;
5612;SDS011;63463;53.586;9.928;2023-04-24T06:08:16;3.77;;;3.57;;
5612;SDS011;63463;53.586;9.928;2023-04-24T06:10:43;3.63;;;3.43;;
5612;SDS011;63463;53.586;9.928;2023-04-24T06:13:13;3.83;;;3.53;;
5612;SDS011;63463;53.586;9.928;2023-04-24T06:15:41;3.73;;;3.53;;
5612;SDS011;63463;53.586;9.928;2023-04-24T06:18:07;3.63;;;3.33;;
5612;SDS011;63463;53.586;9.928;2023-04-24T06:20:35;3.80;;;3.53;;
5612;SDS011;63463;53.586;9.928;2023-04-24T06:23:02;3.57;;;3.43;;
5612;SDS011;63463;53.586;9.928;2023-04-24T06:25:29;3.17;;;3.07;;
5612;SDS011;63463;53.586;9.928;2023-04-24T06:27:55;3.47;;;3.37;;
5612;SDS011;63463;53.586;9.928;2023-04-24T06:30:22;3.50;;;3.40;;
5612;SDS011;63463;53.586;9.928;2023-04-24T06:32:48;3.63;;;3.43;;
5612;SDS011;63463;53.586;9.928;2023-04-24T06:35:17;3.50;;;3.40;;
5612;SDS011;63463;53.586;9.928;2023-04-24T06:37:43;3.70;;;3.50;;
5612;SDS011;63463;53.586;9.928;2023-04-24T06:40:09;4.10;;;3.80;;
5612;SDS011;63463;53.586;9.928;2023-04-24T06:42:35;3.93;;;3.63;;
5612;SDS011;63463;53.586;9.928;2023-04-24T06:45:02;4.33;;;3.93;;
5612;SDS011;63463;53.586;9.928;2023-04-24T06:47:28;4.17;;;3.60;;
5612;SDS011;63463;53.586;9.928;2023-04-24T06:49:54;3.47;;;3.30;;
5612;SDS011;63463;53.586;9.928;2023-04-24T06:52:20;3.97;;;3.67;;
5612;SDS011;63463;53.586;9.928;2023-04-24T06:54:46;3.60;;;3.40;;
5612;SDS011;63463;53.586;9.928;2023-04-24T06:57:12;4.40;;;4.00;;
5612;SDS011;63463;53.586;9.928;2023-04-24T06:59:38;4.37;;;3.97;;
5612;SDS011;63463;53.586;9.928;2023-04-24T07:02:05;8.53;;;4.20;;
5612;SDS011;63463;53.586;9.928;2023-04-24T07:04:33;4.40;;;4.03;;
5612;SDS011;63463;53.586;9.928;2023-04-24T07:06:59;4.10;;;3.67;;
5612;SDS011;63463;53.586;9.928;2023-04-24T07:09:30;4.20;;;3.97;;
5612;SDS011;63463;53.586;9.928;2023-04-24T07:11:56;4.13;;;3.83;;
5612;SDS011;63463;53.586;9.928;2023-04-24T07:14:22;6.00;;;4.30;;
5612;SDS011;63463;53.586;9.928;2023-04-24T07:16:49;4.83;;;4.43;;
5612;SDS011;63463;53.586;9.928;2023-04-24T07:19:15;5.63;;;4.20;;
5612;SDS011;63463;53.586;9.928;2023-04-24T07:21:41;5.57;;;5.07;;
5612;SDS011;63463;53.586;9.928;2023-04-24T07:24:07;6.50;;;5.03;;
5612;SDS011;63463;53.586;9.928;2023-04-24T07:26:35;4.97;;;4.60;;
5612;SDS011;63463;53.586;9.928;2023-04-24T07:29:03;5.70;;;5.00;;
5612;SDS011;63463;53.586;9.928;2023-04-24T07:31:29;4.73;;;4.43;;
5612;SDS011;63463;53.586;9.928;2023-04-24T07:33:55;6.23;;;5.40;;
5612;SDS011;63463;53.586;9.928;2023-04-24T07:36:23;5.33;;;4.83;;
5612;SDS011;63463;53.586;9.928;2023-04-24T07:38:49;7.80;;;5.53;;
5612;SDS011;63463;53.586;9.928;2023-04-24T07:41:15;5.40;;;4.73;;
5612;SDS011;63463;53.586;9.928;2023-04-24T07:43:41;5.90;;;5.30;;
5612;SDS011;63463;53.586;9.928;2023-04-24T07:46:07;5.00;;;4.60;;
5612;SDS011;63463;53.586;9.928;2023-04-24T07:48:34;5.47;;;4.97;;
5612;SDS011;63463;53.586;9.928;2023-04-24T07:51:00;4.93;;;4.60;;
5612;SDS011;63463;53.586;9.928;2023-04-24T07:53:26;7.03;;;5.47;;
5612;SDS011;63463;53.586;9.928;2023-04-24T07:55:54;7.13;;;5.23;;
5612;SDS011;63463;53.586;9.928;2023-04-24T07:58:20;5.83;;;5.33;;
5612;SDS011;63463;53.586;9.928;2023-04-24T08:00:46;8.47;;;5.60;;
5612;SDS011;63463;53.586;9.928;2023-04-24T08:03:13;7.90;;;6.07;;
5612;SDS011;63463;53.586;9.928;2023-04-24T08:05:39;5.97;;;5.13;;
5612;SDS011;63463;53.586;9.928;2023-04-24T08:08:06;10.83;;;6.30;;
5612;SDS011;63463;53.586;9.928;2023-04-24T08:10:33;5.90;;;5.30;;
5612;SDS011;63463;53.586;9.928;2023-04-24T08:12:59;6.27;;;5.67;;
5612;SDS011;63463;53.586;9.928;2023-04-24T08:15:25;5.77;;;5.37;;
5612;SDS011;63463;53.586;9.928;2023-04-24T08:17:51;7.83;;;6.00;;
5612;SDS011;63463;53.586;9.928;2023-04-24T08:20:17;8.07;;;5.70;;
5612;SDS011;63463;53.586;9.928;2023-04-24T08:22:43;6.97;;;5.50;;
5612;SDS011;63463;53.586;9.928;2023-04-24T08:25:12;8.87;;;6.60;;
5612;SDS011;63463;53.586;9.928;2023-04-24T08:27:38;7.20;;;6.50;;
5612;SDS011;63463;53.586;9.928;2023-04-24T08:30:05;6.87;;;6.17;;
5612;SDS011;63463;53.586;9.928;2023-04-24T08:32:31;8.57;;;6.23;;
5612;SDS011;63463;53.586;9.928;2023-04-24T08:34:57;6.00;;;5.60;;
5612;SDS011;63463;53.586;9.928;2023-04-24T08:37:26;6.27;;;5.73;;
5612;SDS011;63463;53.586;9.928;2023-04-24T08:39:56;6.27;;;5.67;;
5612;SDS011;63463;53.586;9.928;2023-04-24T08:42:22;6.43;;;5.83;;
5612;SDS011;63463;53.586;9.928;2023-04-24T08:44:49;6.70;;;6.10;;
5612;SDS011;63463;53.586;9.928;2023-04-24T08:47:15;7.53;;;5.90;;
5612;SDS011;63463;53.586;9.928;2023-04-24T08:49:41;8.80;;;6.37;;
5612;SDS011;63463;53.586;9.928;2023-04-24T08:52:08;7.70;;;6.47;;
5612;SDS011;63463;53.586;9.928;2023-04-24T08:54:35;8.17;;;6.30;;
5612;SDS011;63463;53.586;9.928;2023-04-24T08:57:02;7.47;;;6.77;;
5612;SDS011;63463;53.586;9.928;2023-04-24T08:59:31;10.90;;;7.03;;
5612;SDS011;63463;53.586;9.928;2023-04-24T09:01:58;20.13;;;7.00;;
5612;SDS011;63463;53.586;9.928;2023-04-24T09:04:24;9.27;;;7.00;;
5612;SDS011;63463;53.586;9.928;2023-04-24T09:06:51;7.17;;;6.47;;
5612;SDS011;63463;53.586;9.928;2023-04-24T09:09:20;7.60;;;6.80;;
5612;SDS011;63463;53.586;9.928;2023-04-24T09:11:46;10.60;;;7.90;;
5612;SDS011;63463;53.586;9.928;2023-04-24T09:14:15;7.87;;;6.70;;
5612;SDS011;63463;53.586;9.928;2023-04-24T09:16:41;7.93;;;7.17;;
5612;SDS011;63463;53.586;9.928;2023-04-24T09:19:07;9.17;;;7.00;;
5612;SDS011;63463;53.586;9.928;2023-04-24T09:21:34;12.13;;;7.07;;
5612;SDS011;63463;53.586;9.928;2023-04-24T09:24:01;7.93;;;7.13;;
5612;SDS011;63463;53.586;9.928;2023-04-24T09:26:31;10.03;;;8.03;;
5612;SDS011;63463;53.586;9.928;2023-04-24T09:29:00;8.27;;;6.83;;
5612;SDS011;63463;53.586;9.928;2023-04-24T09:31:27;8.37;;;6.80;;
5612;SDS011;63463;53.586;9.928;2023-04-24T09:34:00;7.97;;;6.43;;
5612;SDS011;63463;53.586;9.928;2023-04-24T09:36:32;8.73;;;6.60;;
5612;SDS011;63463;53.586;9.928;2023-04-24T09:38:59;7.40;;;6.27;;
5612;SDS011;63463;53.586;9.928;2023-04-24T09:41:25;7.90;;;6.50;;
5612;SDS011;63463;53.586;9.928;2023-04-24T09:43:55;7.27;;;6.57;;
5612;SDS011;63463;53.586;9.928;2023-04-24T09:46:28;11.23;;;6.53;;
5612;SDS011;63463;53.586;9.928;2023-04-24T09:48:54;8.43;;;6.43;;
5612;SDS011;63463;53.586;9.928;2023-04-24T09:51:32;9.53;;;6.90;;
5612;SDS011;63463;53.586;9.928;2023-04-24T09:53:59;10.40;;;7.70;;
5612;SDS011;63463;53.586;9.928;2023-04-24T09:56:25;10.50;;;7.57;;
5612;SDS011;63463;53.586;9.928;2023-04-24T09:58:51;8.20;;;7.40;;
5612;SDS011;63463;53.586;9.928;2023-04-24T10:01:29;8.13;;;7.33;;
5612;SDS011;63463;53.586;9.928;2023-04-24T10:04:03;9.33;;;7.20;;
5612;SDS011;63463;53.586;9.928;2023-04-24T10:06:30;18.33;;;9.20;;
5612;SDS011;63463;53.586;9.928;2023-04-24T10:08:57;12.30;;;7.50;;
5612;SDS011;63463;53.586;9.928;2023-04-24T10:11:25;9.00;;;8.10;;
5612;SDS011;63463;53.586;9.928;2023-04-24T10:13:52;10.43;;;8.10;;
5612;SDS011;63463;53.586;9.928;2023-04-24T10:16:19;15.90;;;8.80;;
5612;SDS011;63463;53.586;9.928;2023-04-24T10:18:47;11.13;;;8.70;;
5612;SDS011;63463;53.586;9.928;2023-04-24T10:21:14;13.80;;;8.70;;
5612;SDS011;63463;53.586;9.928;2023-04-24T10:23:41;12.90;;;9.70;;
5612;SDS011;63463;53.586;9.928;2023-04-24T10:26:08;15.00;;;9.53;;
5612;SDS011;63463;53.586;9.928;2023-04-24T10:28:36;15.50;;;10.70;;
5612;SDS011;63463;53.586;9.928;2023-04-24T10:31:02;13.07;;;9.37;;
5612;SDS011;63463;53.586;9.928;2023-04-24T10:33:31;18.13;;;9.67;;
5612;SDS011;63463;53.586;9.928;2023-04-24T10:35:57;16.43;;;9.70;;
5612;SDS011;63463;53.586;9.928;2023-04-24T10:38:25;15.93;;;9.57;;
5612;SDS011;63463;53.586;9.928;2023-04-24T10:40:57;10.93;;;9.10;;
5612;SDS011;63463;53.586;9.928;2023-04-24T10:43:33;13.20;;;9.63;;
5612;SDS011;63463;53.586;9.928;2023-04-24T10:46:00;16.40;;;10.60;;
5612;SDS011;63463;53.586;9.928;2023-04-24T10:48:27;12.60;;;9.67;;
5612;SDS011;63463;53.586;9.928;2023-04-24T10:50:53;15.83;;;10.20;;
5612;SDS011;63463;53.586;9.928;2023-04-24T10:53:20;18.83;;;11.83;;
5612;SDS011;63463;53.586;9.928;2023-04-24T10:56:05;13.60;;;10.40;;
5612;SDS011;63463;53.586;9.928;2023-04-24T10:58:49;16.80;;;10.57;;
5612;SDS011;63463;53.586;9.928;2023-04-24T11:01:29;14.80;;;10.40;;
5612;SDS011;63463;53.586;9.928;2023-04-24T11:03:57;21.77;;;9.50;;
5612;SDS011;63463;53.586;9.928;2023-04-24T11:06:30;16.30;;;9.33;;
5612;SDS011;63463;53.586;9.928;2023-04-24T11:09:06;11.50;;;9.43;;
5612;SDS011;63463;53.586;9.928;2023-04-24T11:11:33;15.07;;;9.77;;
5612;SDS011;63463;53.586;9.928;2023-04-24T11:16:27;14.30;;;10.03;;
5612;SDS011;63463;53.586;9.928;2023-04-24T11:19:18;15.33;;;10.03;;
5612;SDS011;63463;53.586;9.928;2023-04-24T11:21:46;14.57;;;10.07;;
5612;SDS011;63463;53.586;9.928;2023-04-24T11:26:58;14.70;;;8.60;;
5612;SDS011;63463;53.586;9.928;2023-04-24T11:29:40;13.80;;;9.10;;
5612;SDS011;63463;53.586;9.928;2023-04-24T11:34:46;15.57;;;8.83;;
5612;SDS011;63463;53.586;9.928;2023-04-24T11:37:12;14.40;;;8.93;;
5612;SDS011;63463;53.586;9.928;2023-04-24T11:39:39;20.63;;;10.37;;
5612;SDS011;63463;53.586;9.928;2023-04-24T11:42:06;11.30;;;7.83;;
5612;SDS011;63463;53.586;9.928;2023-04-24T11:44:36;12.40;;;9.17;;
5612;SDS011;63463;53.586;9.928;2023-04-24T11:47:04;14.93;;;9.20;;
5612;SDS011;63463;53.586;9.928;2023-04-24T11:49:33;12.67;;;9.17;;
5612;SDS011;63463;53.586;9.928;2023-04-24T11:51:59;11.87;;;9.10;;
5612;SDS011;63463;53.586;9.928;2023-04-24T11:54:26;12.70;;;9.03;;
5612;SDS011;63463;53.586;9.928;2023-04-24T11:56:52;11.20;;;8.30;;
5612;SDS011;63463;53.586;9.928;2023-04-24T11:59:21;11.83;;;7.80;;
5612;SDS011;63463;53.586;9.928;2023-04-24T12:01:47;9.10;;;7.47;;
5612;SDS011;63463;53.586;9.928;2023-04-24T12:04:14;13.20;;;7.90;;
5612;SDS011;63463;53.586;9.928;2023-04-24T12:09:26;16.63;;;8.13;;
5612;SDS011;63463;53.586;9.928;2023-04-24T12:11:52;8.87;;;7.30;;
5612;SDS011;63463;53.586;9.928;2023-04-24T12:14:22;7.43;;;6.63;;
5612;SDS011;63463;53.586;9.928;2023-04-24T12:16:48;10.40;;;7.10;;
5612;SDS011;63463;53.586;9.928;2023-04-24T12:19:20;7.70;;;6.60;;
5612;SDS011;63463;53.586;9.928;2023-04-24T12:21:58;9.67;;;7.40;;
5612;SDS011;63463;53.586;9.928;2023-04-24T12:24:24;9.70;;;7.57;;
5612;SDS011;63463;53.586;9.928;2023-04-24T12:26:50;12.70;;;7.83;;
5612;SDS011;63463;53.586;9.928;2023-04-24T12:29:21;8.27;;;7.10;;
5612;SDS011;63463;53.586;9.928;2023-04-24T12:31:48;13.13;;;8.10;;
5612;SDS011;63463;53.586;9.928;2023-04-24T12:34:21;9.77;;;7.97;;
5612;SDS011;63463;53.586;9.928;2023-04-24T12:36:48;16.87;;;7.83;;
5612;SDS011;63463;53.586;9.928;2023-04-24T12:39:15;10.20;;;7.40;;
5612;SDS011;63463;53.586;9.928;2023-04-24T12:41:54;9.93;;;7.40;;
5612;SDS011;63463;53.586;9.928;2023-04-24T12:44:28;8.90;;;7.97;;
5612;SDS011;63463;53.586;9.928;2023-04-24T12:46:55;10.53;;;7.73;;
5612;SDS011;63463;53.586;9.928;2023-04-24T12:49:21;10.73;;;8.40;;
5612;SDS011;63463;53.586;9.928;2023-04-24T12:51:48;8.17;;;7.10;;
5612;SDS011;63463;53.586;9.928;2023-04-24T12:54:14;9.50;;;7.13;;
5612;SDS011;63463;53.586;9.928;2023-04-24T12:56:45;9.10;;;7.70;;
5612;SDS011;63463;53.586;9.928;2023-04-24T12:59:12;12.37;;;8.07;;
5612;SDS011;63463;53.586;9.928;2023-04-24T13:01:38;11.33;;;7.97;;
5612;SDS011;63463;53.586;9.928;2023-04-24T13:04:04;9.30;;;7.63;;
5612;SDS011;63463;53.586;9.928;2023-04-24T13:06:31;9.63;;;7.17;;
5612;SDS011;63463;53.586;9.928;2023-04-24T13:08:58;7.53;;;6.83;;
5612;SDS011;63463;53.586;9.928;2023-04-24T13:11:24;7.33;;;6.63;;
5612;SDS011;63463;53.586;9.928;2023-04-24T13:13:50;9.13;;;7.10;;
5612;SDS011;63463;53.586;9.928;2023-04-24T13:16:17;7.67;;;6.80;;
5612;SDS011;63463;53.586;9.928;2023-04-24T13:18:43;15.23;;;7.40;;
5612;SDS011;63463;53.586;9.928;2023-04-24T13:21:10;10.60;;;6.90;;
5612;SDS011;63463;53.586;9.928;2023-04-24T13:23:36;9.03;;;6.60;;
5612;SDS011;63463;53.586;9.928;2023-04-24T13:26:02;7.47;;;6.70;;
5612;SDS011;63463;53.586;9.928;2023-04-24T13:28:28;7.37;;;6.67;;
5612;SDS011;63463;53.586;9.928;2023-04-24T13:30:55;7.10;;;6.20;;
5612;SDS011;63463;53.586;9.928;2023-04-24T13:33:21;10.80;;;6.87;;
5612;SDS011;63463;53.586;9.928;2023-04-24T13:35:47;8.10;;;7.30;;
5612;SDS011;63463;53.586;9.928;2023-04-24T13:38:14;6.83;;;6.23;;
5612;SDS011;63463;53.586;9.928;2023-04-24T13:40:40;7.10;;;6.40;;
5612;SDS011;63463;53.586;9.928;2023-04-24T13:43:09;7.47;;;6.77;;
5612;SDS011;63463;53.586;9.928;2023-04-24T13:45:35;12.77;;;7.23;;
5612;SDS011;63463;53.586;9.928;2023-04-24T13:48:03;8.60;;;6.70;;
5612;SDS011;63463;53.586;9.928;2023-04-24T13:50:29;7.20;;;6.57;;
5612;SDS011;63463;53.586;9.928;2023-04-24T13:52:55;8.13;;;7.30;;
5612;SDS011;63463;53.586;9.928;2023-04-24T13:55:22;10.50;;;7.43;;
5612;SDS011;63463;53.586;9.928;2023-04-24T13:57:48;9.20;;;7.17;;
5612;SDS011;63463;53.586;9.928;2023-04-24T14:00:14;12.93;;;7.20;;
5612;SDS011;63463;53.586;9.928;2023-04-24T14:02:40;8.90;;;6.77;;
5612;SDS011;63463;53.586;9.928;2023-04-24T14:05:07;7.53;;;6.80;;
5612;SDS011;63463;53.586;9.928;2023-04-24T14:07:33;7.80;;;7.10;;
5612;SDS011;63463;53.586;9.928;2023-04-24T14:09:59;7.17;;;6.47;;
5612;SDS011;63463;53.586;9.928;2023-04-24T14:12:25;6.97;;;6.27;;
5612;SDS011;63463;53.586;9.928;2023-04-24T14:14:52;6.50;;;6.00;;
5612;SDS011;63463;53.586;9.928;2023-04-24T14:17:18;8.30;;;7.40;;
5612;SDS011;63463;53.586;9.928;2023-04-24T14:19:44;7.73;;;6.93;;
5612;SDS011;63463;53.586;9.928;2023-04-24T14:22:10;7.00;;;6.37;;
5612;SDS011;63463;53.586;9.928;2023-04-24T14:24:36;9.70;;;6.53;;
5612;SDS011;63463;53.586;9.928;2023-04-24T14:27:02;11.43;;;6.83;;
5612;SDS011;63463;53.586;9.928;2023-04-24T14:29:31;8.07;;;6.90;;
5612;SDS011;63463;53.586;9.928;2023-04-24T14:31:57;9.17;;;7.03;;
5612;SDS011;63463;53.586;9.928;2023-04-24T14:34:23;8.03;;;7.20;;
5612;SDS011;63463;53.586;9.928;2023-04-24T14:36:49;11.40;;;8.97;;
5612;SDS011;63463;53.586;9.928;2023-04-24T14:39:15;15.50;;;9.20;;
5612;SDS011;63463;53.586;9.928;2023-04-24T14:41:41;14.43;;;8.73;;
5612;SDS011;63463;53.586;9.928;2023-04-24T14:44:08;9.70;;;8.27;;
5612;SDS011;63463;53.586;9.928;2023-04-24T14:46:35;11.93;;;9.47;;
5612;SDS011;63463;53.586;9.928;2023-04-24T14:49:01;11.77;;;8.97;;
5612;SDS011;63463;53.586;9.928;2023-04-24T14:51:27;14.77;;;10.30;;
5612;SDS011;63463;53.586;9.928;2023-04-24T14:53:54;13.50;;;9.53;;
5612;SDS011;63463;53.586;9.928;2023-04-24T14:56:20;15.23;;;10.60;;
5612;SDS011;63463;53.586;9.928;2023-04-24T14:58:49;14.70;;;9.93;;
5612;SDS011;63463;53.586;9.928;2023-04-24T15:01:15;11.20;;;9.50;;
5612;SDS011;63463;53.586;9.928;2023-04-24T15:03:42;11.20;;;8.50;;
5612;SDS011;63463;53.586;9.928;2023-04-24T15:06:08;8.83;;;7.93;;
5612;SDS011;63463;53.586;9.928;2023-04-24T15:08:35;9.53;;;8.33;;